createdAt,value
2022-08-23T00:02:46.415Z,98981.31
2022-08-23T00:05:34.323Z,98978.91
2022-08-23T00:08:21.879Z,98980.84
2022-08-23T00:11:26.040Z,98976.09
2022-08-23T00:14:28.796Z,98972.13
2022-08-23T00:17:33.564Z,98975.16
2022-08-23T00:20:22.230Z,98964.63
2022-08-23T00:23:10.701Z,98967.25
2022-08-23T00:26:01.473Z,98961.69
2022-08-23T00:28:50.046Z,98972.19
2022-08-23T00:31:37.639Z,98976.19
2022-08-23T00:34:25.674Z,98982.28
2022-08-23T00:37:15.792Z,98982.75
2022-08-23T00:40:08.969Z,98979.56
2022-08-23T00:43:02.687Z,98986.97
2022-08-23T00:46:27.770Z,98987.31
2022-08-23T00:49:16.266Z,98989.94
2022-08-23T00:52:14.948Z,98979.72
2022-08-23T00:55:02.891Z,98986.78
2022-08-23T00:57:51.905Z,98995.31
2022-08-23T01:00:39.540Z,99000.03
2022-08-23T01:03:29.707Z,98997.34
2022-08-23T01:06:37.691Z,99002.72
2022-08-23T01:09:26.042Z,99010.13
2022-08-23T01:12:32.492Z,99017.00
2022-08-23T01:15:26.458Z,99008.78
2022-08-23T01:18:15.910Z,99005.88
2022-08-23T01:21:19.764Z,99014.09
2022-08-23T01:24:08.427Z,99017.69
2022-08-23T01:26:56.290Z,99014.72
2022-08-23T01:29:43.937Z,99013.62
2022-08-23T01:32:32.640Z,99024.59
2022-08-23T01:35:28.274Z,99023.56
2022-08-23T01:38:16.495Z,99019.56
2022-08-23T01:41:04.554Z,99032.25
2022-08-23T01:43:52.439Z,99035.34
2022-08-23T01:46:44.482Z,99026.81
2022-08-23T01:49:34.192Z,99031.03
2022-08-23T01:52:22.169Z,99044.84
2022-08-23T01:55:10.327Z,99043.47
2022-08-23T01:58:01.469Z,99042.06
2022-08-23T02:00:49.521Z,99041.44
2022-08-23T02:03:38.505Z,99040.34
2022-08-23T02:06:26.112Z,99041.50
2022-08-23T02:09:17.382Z,99041.13
2022-08-23T02:12:05.975Z,99044.62
2022-08-23T02:14:54.210Z,99046.88
2022-08-23T02:17:43.267Z,99047.72
2022-08-23T02:20:31.180Z,99045.47
2022-08-23T02:23:20.362Z,99056.47
2022-08-23T02:26:08.230Z,99052.16
2022-08-23T02:28:56.471Z,99053.75
2022-08-23T02:31:44.897Z,99051.81
2022-08-23T02:34:32.680Z,99059.88
2022-08-23T02:37:21.460Z,99066.44
2022-08-23T02:40:09.757Z,99068.81
2022-08-23T02:42:58.668Z,99072.66
2022-08-23T02:45:47.574Z,99066.25
2022-08-23T02:48:36.187Z,99074.25
2022-08-23T02:51:25.448Z,99066.41
2022-08-23T02:54:13.787Z,99076.50
2022-08-23T02:57:01.675Z,99074.53
2022-08-23T02:59:49.702Z,99078.37
2022-08-23T03:02:38.755Z,99082.59
2022-08-23T03:05:27.738Z,99086.53
2022-08-23T03:08:15.826Z,99084.53
2022-08-23T03:11:11.723Z,99081.00
2022-08-23T03:13:59.932Z,99097.72
2022-08-23T03:16:48.044Z,99096.66
2022-08-23T03:19:35.594Z,99093.97
2022-08-23T03:22:23.478Z,99089.38
2022-08-23T03:25:11.677Z,99080.88
2022-08-23T03:28:06.060Z,99088.50
2022-08-23T03:30:54.421Z,99092.69
2022-08-23T03:33:42.582Z,99091.72
2022-08-23T03:36:30.506Z,99092.56
2022-08-23T03:39:18.411Z,99099.13
2022-08-23T03:42:06.602Z,99093.25
2022-08-23T03:44:56.836Z,99095.22
2022-08-23T03:47:50.989Z,99087.63
2022-08-23T03:50:39.172Z,99094.78
2022-08-23T03:53:26.856Z,99093.63
2022-08-23T03:56:30.683Z,99103.59
2022-08-23T03:59:18.532Z,99115.38
2022-08-23T04:02:07.297Z,99114.97
2022-08-23T04:04:55.207Z,99119.41
2022-08-23T04:07:44.795Z,99120.12
2022-08-23T04:10:32.627Z,99124.34
2022-08-23T04:13:20.430Z,99123.34
2022-08-23T04:16:08.337Z,99122.69
2022-08-23T04:18:56.161Z,99128.50
2022-08-23T04:21:49.275Z,99123.91
2022-08-23T04:24:37.091Z,99132.06
2022-08-23T04:27:25.494Z,99136.53
2022-08-23T04:30:13.868Z,99135.94
2022-08-23T04:33:02.358Z,99144.62
2022-08-23T04:35:50.841Z,99135.94
2022-08-23T04:38:39.420Z,99142.72
2022-08-23T04:41:27.474Z,99140.66
2022-08-23T04:44:15.977Z,99142.59
2022-08-23T04:47:04.330Z,99142.34
2022-08-23T04:49:52.487Z,99150.03
2022-08-23T04:52:40.020Z,99149.22
2022-08-23T04:55:28.297Z,99148.97
2022-08-23T04:58:16.210Z,99154.16
2022-08-23T05:01:06.821Z,99154.75
2022-08-23T05:03:54.778Z,99164.19
2022-08-23T05:06:44.823Z,99161.84
2022-08-23T05:09:32.349Z,99165.31
2022-08-23T05:12:20.244Z,99163.94
2022-08-23T05:15:11.140Z,99163.34
2022-08-23T05:17:59.950Z,99173.62
2022-08-23T05:20:48.029Z,99181.12
2022-08-23T05:23:36.146Z,99185.59
2022-08-23T05:26:24.933Z,99183.91
2022-08-23T05:29:12.910Z,99187.53
2022-08-23T05:32:01.285Z,99196.47
2022-08-23T05:34:49.383Z,99194.00
2022-08-23T05:37:37.000Z,99206.88
2022-08-23T05:40:25.199Z,99201.66
2022-08-23T05:43:14.114Z,99204.06
2022-08-23T05:46:06.561Z,99207.38
2022-08-23T05:49:00.679Z,99208.47
2022-08-23T05:51:51.723Z,99220.03
2022-08-23T05:54:40.500Z,99216.69
2022-08-23T05:57:30.837Z,99226.34
2022-08-23T06:00:18.469Z,99228.75
2022-08-23T06:03:06.211Z,99229.09
2022-08-23T06:05:59.268Z,99231.66
2022-08-23T06:08:48.474Z,99240.34
2022-08-23T06:11:36.881Z,99234.66
2022-08-23T06:14:25.949Z,99235.22
2022-08-23T06:17:13.918Z,99239.22
2022-08-23T06:20:02.360Z,99234.09
2022-08-23T06:22:51.155Z,99239.41
2022-08-23T06:25:39.666Z,99237.09
2022-08-23T06:28:30.721Z,99237.34
2022-08-23T06:31:19.598Z,99246.66
2022-08-23T06:34:10.832Z,99241.47
2022-08-23T06:37:03.078Z,99239.56
2022-08-23T06:39:54.885Z,99236.41
2022-08-23T06:42:42.929Z,99242.00
2022-08-23T06:45:34.860Z,99240.78
2022-08-23T06:48:23.014Z,99243.09
2022-08-23T06:51:13.849Z,99248.56
2022-08-23T06:54:05.370Z,99249.47
2022-08-23T06:56:54.174Z,99251.00
2022-08-23T06:59:41.859Z,99251.28
2022-08-23T07:02:30.157Z,99247.22
2022-08-23T07:05:21.674Z,99247.66
2022-08-23T07:08:10.566Z,99251.03
2022-08-23T07:10:58.130Z,99261.59
2022-08-23T07:13:46.676Z,99256.63
2022-08-23T07:16:36.596Z,99258.62
2022-08-23T07:19:29.298Z,99264.28
2022-08-23T07:22:17.107Z,99258.00
2022-08-23T07:25:05.279Z,99257.81
2022-08-23T07:27:56.686Z,99265.88
2022-08-23T07:30:45.459Z,99272.69
2022-08-23T07:33:33.325Z,99270.59
2022-08-23T07:36:28.092Z,99274.63
2022-08-23T07:39:19.292Z,99273.97
2022-08-23T07:42:22.090Z,99275.66
2022-08-23T07:45:12.991Z,99267.25
2022-08-23T07:48:02.065Z,99273.53
2022-08-23T07:51:05.493Z,99273.94
2022-08-23T07:53:54.397Z,99273.34
2022-08-23T07:56:42.391Z,99276.91
2022-08-23T07:59:34.720Z,99282.53
2022-08-23T08:02:23.125Z,99288.56
2022-08-23T08:05:11.311Z,99287.94
2022-08-23T08:07:58.991Z,99284.97
2022-08-23T08:10:46.864Z,99295.44
2022-08-23T08:13:36.931Z,99288.97
2022-08-23T08:16:31.873Z,99288.53
2022-08-23T08:19:19.910Z,99294.47
2022-08-23T08:22:12.182Z,99294.00
2022-08-23T08:25:02.840Z,99290.16
2022-08-23T08:27:50.943Z,99294.19
2022-08-23T08:30:38.790Z,99297.47
2022-08-23T08:33:30.833Z,99298.59
2022-08-23T08:36:31.240Z,99305.34
2022-08-23T08:39:26.520Z,99307.66
2022-08-23T08:42:33.101Z,99310.84
2022-08-23T08:45:26.828Z,99316.19
2022-08-23T08:48:19.933Z,99320.75
2022-08-23T08:51:22.625Z,99329.03
2022-08-23T08:54:13.460Z,99307.72
2022-08-23T08:57:02.087Z,99314.37
2022-08-23T08:59:59.824Z,99315.94
2022-08-23T09:02:47.970Z,99315.06
2022-08-23T09:05:38.540Z,99316.34
2022-08-23T09:08:39.889Z,99321.44
2022-08-23T09:12:01.736Z,99321.03
2022-08-23T09:15:14.343Z,99310.88
2022-08-23T09:18:12.523Z,99332.00
2022-08-23T09:21:00.767Z,99324.03
2022-08-23T09:24:01.047Z,99319.03
2022-08-23T09:26:50.136Z,99314.75
2022-08-23T09:29:40.491Z,99324.81
2022-08-23T09:32:32.826Z,99325.50
2022-08-23T09:35:23.462Z,99323.06
2022-08-23T09:38:12.055Z,99321.66
2022-08-23T09:41:01.161Z,99327.12
2022-08-23T09:43:49.044Z,99325.56
2022-08-23T09:46:37.697Z,99321.72
2022-08-23T09:49:30.240Z,99328.16
2022-08-23T09:52:21.888Z,99327.44
2022-08-23T09:55:30.114Z,99326.97
2022-08-23T09:58:29.781Z,99325.25
2022-08-23T10:01:27.166Z,99325.09
2022-08-23T10:04:29.450Z,99331.84
2022-08-23T10:07:23.165Z,99324.84
2022-08-23T10:10:42.410Z,99331.34
2022-08-23T10:13:33.079Z,99324.41
2022-08-23T10:16:29.664Z,99322.44
2022-08-23T10:19:38.908Z,99324.63
2022-08-23T10:22:39.896Z,99328.28
2022-08-23T10:25:43.146Z,99328.19
2022-08-23T10:29:04.113Z,99325.69
2022-08-23T10:31:58.999Z,99323.22
2022-08-23T10:35:03.518Z,99327.12
2022-08-23T10:38:13.394Z,99328.53
2022-08-23T10:41:26.057Z,99320.31
2022-08-23T10:44:28.074Z,99325.84
2022-08-23T10:47:18.855Z,99316.31
2022-08-23T10:50:10.649Z,99315.31
2022-08-23T10:53:04.944Z,99311.50
2022-08-23T10:55:56.678Z,99310.34
2022-08-23T10:58:47.849Z,99313.03
2022-08-23T11:01:41.432Z,99315.13
2022-08-23T11:04:35.583Z,99306.16
2022-08-23T11:07:39.312Z,99300.50
2022-08-23T11:10:30.227Z,99304.41
2022-08-23T11:13:17.714Z,99307.06
2022-08-23T11:16:29.222Z,99303.84
2022-08-23T11:19:48.907Z,99304.47
2022-08-23T11:23:01.842Z,99311.12
2022-08-23T11:25:49.385Z,99309.06
2022-08-23T11:28:45.822Z,99301.03
2022-08-23T11:31:46.808Z,99299.87
2022-08-23T11:34:41.790Z,99300.25
2022-08-23T11:37:49.857Z,99290.13
2022-08-23T11:40:51.945Z,99289.31
2022-08-23T11:43:43.065Z,99289.84
2022-08-23T11:46:33.935Z,99285.63
2022-08-23T11:49:30.652Z,99285.09
2022-08-23T11:52:23.452Z,99287.59
2022-08-23T11:55:15.256Z,99289.97
2022-08-23T11:58:10.845Z,99284.00
2022-08-23T12:00:53.008Z,99279.78
2022-08-23T12:03:32.469Z,99278.88
2022-08-23T12:06:02.944Z,99288.91
2022-08-23T12:08:51.813Z,99279.72
2022-08-23T12:11:20.307Z,99276.19
2022-08-23T12:13:52.768Z,99274.94
2022-08-23T12:16:20.109Z,99280.44
2022-08-23T12:18:50.501Z,99285.78
2022-08-23T12:21:32.175Z,99291.78
2022-08-23T12:24:03.832Z,99286.50
2022-08-23T12:26:54.963Z,99282.44
2022-08-23T12:30:03.545Z,99294.81
2022-08-23T12:33:05.568Z,99294.50
2022-08-23T12:36:15.441Z,99295.72
2022-08-23T12:39:07.793Z,99296.66
2022-08-23T12:41:55.503Z,99299.94
2022-08-23T12:44:45.361Z,99302.03
2022-08-23T12:47:33.874Z,99298.09
2022-08-23T12:50:20.354Z,99301.94
2022-08-23T12:53:16.213Z,99298.06
2022-08-23T12:55:46.515Z,99306.59
2022-08-23T12:58:16.673Z,99298.69
2022-08-23T13:01:09.057Z,99294.31
2022-08-23T13:04:12.880Z,99296.44
2022-08-23T13:07:06.554Z,99287.34
2022-08-23T13:09:55.519Z,99282.13
2022-08-23T13:12:43.392Z,99280.66
2022-08-23T13:15:50.952Z,99283.41
2022-08-23T13:18:38.460Z,99275.16
2022-08-23T13:21:28.000Z,99276.91
2022-08-23T13:24:38.113Z,99277.41
2022-08-23T13:27:50.718Z,99278.03
2022-08-23T13:30:38.633Z,99282.84
2022-08-23T13:33:26.590Z,99278.50
2022-08-23T13:36:16.462Z,99278.34
2022-08-23T13:39:07.326Z,99278.00
2022-08-23T13:41:54.948Z,99278.66
2022-08-23T13:44:34.648Z,99280.72
2022-08-23T13:47:01.962Z,99276.44
2022-08-23T13:49:29.814Z,99280.06
2022-08-23T13:52:12.002Z,99279.53
2022-08-23T13:54:51.020Z,99279.25
2022-08-23T13:57:38.982Z,99274.28
2022-08-23T14:00:26.843Z,99275.00
2022-08-23T14:03:14.698Z,99281.41
2022-08-23T14:06:02.242Z,99282.19
2022-08-23T14:08:50.108Z,99269.28
2022-08-23T14:11:38.107Z,99274.78
2022-08-23T14:14:26.483Z,99275.97
2022-08-23T14:17:16.649Z,99273.84
2022-08-23T14:23:12.925Z,99267.25
2022-08-23T14:26:00.877Z,99275.38
2022-08-23T14:28:48.417Z,99271.84
2022-08-23T14:31:42.201Z,99265.78
2022-08-23T14:34:30.381Z,99271.56
2022-08-23T14:38:02.004Z,99267.25
2022-08-23T14:40:25.824Z,99269.81
2022-08-23T14:43:13.696Z,99264.84
2022-08-23T14:46:01.899Z,99258.50
2022-08-23T14:48:50.201Z,99258.56
2022-08-23T14:51:43.406Z,99255.28
2022-08-23T14:54:32.689Z,99256.34
2022-08-23T14:57:20.247Z,99257.69
2022-08-23T15:00:09.794Z,99258.25
2022-08-23T15:02:57.480Z,99250.91
2022-08-23T15:05:45.396Z,99250.28
2022-08-23T15:08:32.941Z,99249.19
2022-08-23T15:14:06.556Z,99251.38
2022-08-23T15:16:54.440Z,99246.50
2022-08-23T15:19:42.049Z,99243.19
2022-08-23T15:22:32.683Z,99249.34
2022-08-23T15:25:32.072Z,99244.38
2022-08-23T15:28:21.033Z,99244.25
2022-08-23T15:31:08.714Z,99245.72
2022-08-23T15:33:56.817Z,99248.13
2022-08-23T15:36:44.352Z,99251.66
2022-08-23T15:39:32.181Z,99247.59
2022-08-23T15:42:20.151Z,99252.72
2022-08-23T15:45:08.909Z,99249.28
2022-08-23T15:47:57.244Z,99266.41
2022-08-23T15:50:46.175Z,99261.28
2022-08-23T15:53:33.743Z,99261.72
2022-08-23T15:56:25.381Z,99248.84
2022-08-23T15:59:14.888Z,99255.34
2022-08-23T16:02:03.068Z,99258.69
2022-08-23T16:04:50.924Z,99258.44
2022-08-23T16:07:40.477Z,99263.28
2022-08-23T16:10:28.547Z,99256.22
2022-08-23T16:13:16.156Z,99258.97
2022-08-23T16:16:04.214Z,99254.63
2022-08-23T16:18:52.625Z,99260.59
2022-08-23T16:21:40.543Z,99263.00
2022-08-23T16:24:30.145Z,99270.28
2022-08-23T16:27:17.995Z,99278.78
2022-08-23T16:30:06.464Z,99270.88
2022-08-23T16:32:54.807Z,99267.38
2022-08-23T16:35:42.362Z,99259.44
2022-08-23T16:38:30.332Z,99262.31
2022-08-23T16:41:19.195Z,99265.25
2022-08-23T16:44:07.123Z,99252.75
2022-08-23T16:46:55.470Z,99262.13
2022-08-23T16:49:43.317Z,99251.69
2022-08-23T16:52:34.710Z,99248.72
2022-08-23T16:55:23.027Z,99249.13
2022-08-23T16:58:10.587Z,99247.13
2022-08-23T17:00:58.531Z,99250.34
2022-08-23T17:03:46.364Z,99249.69
2022-08-23T17:06:34.234Z,99255.56
2022-08-23T17:09:23.148Z,99256.75
2022-08-23T17:12:11.083Z,99260.63
2022-08-23T17:14:59.658Z,99267.00
2022-08-23T17:17:48.204Z,99270.91
2022-08-23T17:20:37.216Z,99281.88
2022-08-23T17:23:25.063Z,99283.84
2022-08-23T17:26:14.237Z,99286.59
2022-08-23T17:29:02.129Z,99297.16
2022-08-23T17:31:49.761Z,99298.06
2022-08-23T17:34:38.644Z,99306.56
2022-08-23T17:37:26.618Z,99313.00
2022-08-23T17:40:21.432Z,99321.75
2022-08-23T17:43:09.532Z,99328.41
2022-08-23T17:46:00.550Z,99332.41
2022-08-23T17:48:48.272Z,99338.94
2022-08-23T17:51:36.531Z,99328.84
2022-08-23T17:54:24.142Z,99338.25
2022-08-23T17:57:12.559Z,99347.25
2022-08-23T18:00:01.054Z,99354.34
2022-08-23T18:02:49.067Z,99361.81
2022-08-23T18:05:38.861Z,99361.03
2022-08-23T18:08:29.365Z,99368.09
2022-08-23T18:11:20.516Z,99370.41
2022-08-23T18:14:08.521Z,99377.88
2022-08-23T18:16:57.235Z,99379.81
2022-08-23T18:19:45.080Z,99387.66
2022-08-23T18:22:37.137Z,99389.25
2022-08-23T18:25:23.865Z,99391.19
2022-08-23T18:28:10.569Z,99399.75
2022-08-23T18:30:56.957Z,99400.53
2022-08-23T18:34:00.517Z,99392.75
2022-08-23T18:36:56.580Z,99397.44
2022-08-23T18:39:47.595Z,99407.56
2022-08-23T18:42:33.465Z,99414.66
2022-08-23T18:45:20.084Z,99401.66
2022-08-23T18:48:07.858Z,99402.00
2022-08-23T18:50:54.091Z,99402.34
2022-08-23T18:53:41.761Z,99410.97
2022-08-23T18:56:29.766Z,99405.47
2022-08-23T18:59:17.438Z,99401.03
2022-08-23T19:02:05.547Z,99403.44
2022-08-23T19:04:53.295Z,99401.84
2022-08-23T19:07:49.806Z,99413.13
2022-08-23T19:10:54.792Z,99403.41
2022-08-23T19:13:43.912Z,99409.28
2022-08-23T19:16:53.550Z,99406.06
2022-08-23T19:19:41.552Z,99409.50
2022-08-23T19:22:29.214Z,99398.16
2022-08-23T19:25:17.294Z,99407.19
2022-08-23T19:28:05.853Z,99413.50
2022-08-23T19:30:53.858Z,99409.13
2022-08-23T19:33:41.579Z,99411.88
2022-08-23T19:36:45.676Z,99420.41
2022-08-23T19:39:35.864Z,99413.41
2022-08-23T19:42:42.872Z,99411.06
2022-08-23T19:45:40.727Z,99412.16
2022-08-23T19:48:28.769Z,99410.59
2022-08-23T19:51:18.532Z,99413.16
2022-08-23T19:54:11.649Z,99419.97
2022-08-23T19:57:00.655Z,99421.44
2022-08-23T19:59:48.650Z,99419.81
2022-08-23T20:02:37.361Z,99423.75
2022-08-23T20:05:26.442Z,99417.75
2022-08-23T20:08:15.871Z,99427.91
2022-08-23T20:11:03.841Z,99433.38
2022-08-23T20:13:51.476Z,99417.69
2022-08-23T20:16:41.705Z,99416.03
2022-08-23T20:19:29.419Z,99414.16
2022-08-23T20:22:17.391Z,99410.75
2022-08-23T20:25:40.155Z,99410.88
2022-08-23T20:28:28.172Z,99399.22
2022-08-23T20:31:18.718Z,99398.63
2022-08-23T20:34:09.259Z,99393.94
2022-08-23T20:36:57.052Z,99395.09
2022-08-23T20:39:50.044Z,99399.37
2022-08-23T20:42:52.784Z,99400.94
2022-08-23T20:45:43.767Z,99395.50
2022-08-23T20:48:35.636Z,99392.75
2022-08-23T20:51:24.392Z,99399.00
2022-08-23T20:54:13.644Z,99398.56
2022-08-23T20:57:01.841Z,99409.09
2022-08-23T20:59:49.506Z,99400.03
2022-08-23T21:02:40.074Z,99401.22
2022-08-23T21:05:27.764Z,99409.34
2022-08-23T21:08:16.450Z,99412.06
2022-08-23T21:11:04.280Z,99403.84
2022-08-23T21:13:52.649Z,99403.44
2022-08-23T21:16:40.386Z,99403.62
2022-08-23T21:19:28.374Z,99403.44
2022-08-23T21:22:16.027Z,99407.44
2022-08-23T21:25:04.876Z,99409.41
2022-08-23T21:27:52.507Z,99406.56
2022-08-23T21:30:40.567Z,99410.50
2022-08-23T21:33:28.266Z,99408.84
2022-08-23T21:36:17.035Z,99418.31
2022-08-23T21:39:05.084Z,99413.66
2022-08-23T21:41:53.068Z,99408.44
2022-08-23T21:44:40.749Z,99400.25
2022-08-23T21:47:28.767Z,99401.72
2022-08-23T21:50:16.697Z,99401.00
2022-08-23T21:53:05.123Z,99401.72
2022-08-23T21:55:54.317Z,99408.25
2022-08-23T21:58:44.231Z,99399.97
2022-08-23T22:01:33.512Z,99405.78
2022-08-23T22:04:21.814Z,99398.25
2022-08-23T22:07:12.125Z,99397.50
2022-08-23T22:10:00.051Z,99397.78
2022-08-23T22:12:47.895Z,99397.63
2022-08-23T22:15:36.303Z,99397.44
2022-08-23T22:18:24.055Z,99395.06
2022-08-23T22:21:12.535Z,99389.63
2022-08-23T22:24:00.363Z,99384.72
2022-08-23T22:26:48.408Z,99386.25
2022-08-23T22:29:36.233Z,99377.81
2022-08-23T22:32:24.479Z,99371.91
2022-08-23T22:35:12.801Z,99368.72
2022-08-23T22:38:13.806Z,99352.66
2022-08-23T22:41:02.327Z,99359.44
2022-08-23T22:43:53.192Z,99356.44
2022-08-23T22:46:44.991Z,99346.97
2022-08-23T22:49:33.101Z,99341.12
2022-08-23T22:52:21.228Z,99325.50
2022-08-23T22:55:09.584Z,99330.00
2022-08-23T22:57:57.455Z,99329.72
2022-08-23T23:00:45.676Z,99327.78
2022-08-23T23:03:33.795Z,99333.53
2022-08-23T23:06:22.278Z,99327.03
2022-08-23T23:09:12.963Z,99324.72
2022-08-23T23:12:03.917Z,99327.38
2022-08-23T23:14:51.699Z,99321.06
2022-08-23T23:17:39.844Z,99327.38
2022-08-23T23:20:27.637Z,99330.03
2022-08-23T23:23:21.245Z,99325.38
2022-08-23T23:26:09.047Z,99321.69
2022-08-23T23:32:15.846Z,99333.59
2022-08-23T23:35:04.329Z,99341.84
2022-08-23T23:37:54.414Z,99339.16
2022-08-23T23:40:42.832Z,99343.84
2022-08-23T23:43:30.706Z,99345.75
2022-08-23T23:46:19.977Z,99347.34
2022-08-23T23:49:07.766Z,99338.41
2022-08-23T23:51:55.945Z,99342.00
2022-08-23T23:54:46.314Z,99340.34
2022-08-23T23:57:34.484Z,99339.19
